sensor_id;sensor_type;location;lat;lon;timestamp;temperature;humidity
72919;SHT30;61063;55.700;26.994;2022-08-19T00:03:27;24.4;66
72919;SHT30;61063;55.700;26.994;2022-08-19T00:08:17;24.3;66
72919;SHT30;61063;55.700;26.994;2022-08-19T00:13:19;24.3;66.1
72919;SHT30;61063;55.700;26.994;2022-08-19T00:18:19;24.3;66
72919;SHT30;61063;55.700;26.994;2022-08-19T00:23:35;24.2;66.1
72919;SHT30;61063;55.700;26.994;2022-08-19T00:28:13;24.2;66
72919;SHT30;61063;55.700;26.994;2022-08-19T00:33:19;24.1;66
72919;SHT30;61063;55.700;26.994;2022-08-19T00:38:21;24.1;66
72919;SHT30;61063;55.700;26.994;2022-08-19T00:43:33;24.1;66.1
72919;SHT30;61063;55.700;26.994;2022-08-19T00:48:33;24.1;66.1
72919;SHT30;61063;55.700;26.994;2022-08-19T00:53:35;24;66.1
72919;SHT30;61063;55.700;26.994;2022-08-19T00:58:33;24;66.1
72919;SHT30;61063;55.700;26.994;2022-08-19T01:23:33;24;66
72919;SHT30;61063;55.700;26.994;2022-08-19T01:28:26;23.8;66.1
72919;SHT30;61063;55.700;26.994;2022-08-19T01:33:15;23.8;66.1
72919;SHT30;61063;55.700;26.994;2022-08-19T01:38:27;23.7;66.1
72919;SHT30;61063;55.700;26.994;2022-08-19T01:43:25;23.6;66.2
72919;SHT30;61063;55.700;26.994;2022-08-19T01:48:05;23.7;66.1
72919;SHT30;61063;55.700;26.994;2022-08-19T01:53:27;23.6;66
72919;SHT30;61063;55.700;26.994;2022-08-19T01:58:39;23.6;65.9
72919;SHT30;61063;55.700;26.994;2022-08-19T02:23:29;23.6;65.9
72919;SHT30;61063;55.700;26.994;2022-08-19T02:28:09;23.4;65.8
72919;SHT30;61063;55.700;26.994;2022-08-19T02:33:37;23.4;65.9
72919;SHT30;61063;55.700;26.994;2022-08-19T02:38:37;23.3;65.9
72919;SHT30;61063;55.700;26.994;2022-08-19T02:43:37;23.3;65.9
72919;SHT30;61063;55.700;26.994;2022-08-19T02:58:37;23.3;65.9
72919;SHT30;61063;55.700;26.994;2022-08-19T03:03:19;23.3;65.7
72919;SHT30;61063;55.700;26.994;2022-08-19T03:08:11;23.2;65.7
72919;SHT30;61063;55.700;26.994;2022-08-19T03:13:35;23.2;65.6
72919;SHT30;61063;55.700;26.994;2022-08-19T03:18:35;23.2;65.5
72919;SHT30;61063;55.700;26.994;2022-08-19T03:23:22;23.3;65.4
72919;SHT30;61063;55.700;26.994;2022-08-19T03:28:37;23.3;65.3
72919;SHT30;61063;55.700;26.994;2022-08-19T03:33:35;23.3;65.3
72919;SHT30;61063;55.700;26.994;2022-08-19T03:38:38;23.4;65.4
72919;SHT30;61063;55.700;26.994;2022-08-19T03:43:39;23.3;66
72919;SHT30;61063;55.700;26.994;2022-08-19T03:48:39;23.3;66.5
72919;SHT30;61063;55.700;26.994;2022-08-19T03:53:39;23;67.3
72919;SHT30;61063;55.700;26.994;2022-08-19T03:58:27;23.1;67.9
72919;SHT30;61063;55.700;26.994;2022-08-19T04:03:25;23;68.5
72919;SHT30;61063;55.700;26.994;2022-08-19T04:07:59;22.9;69.4
72919;SHT30;61063;55.700;26.994;2022-08-19T04:13:29;23.3;68.3
72919;SHT30;61063;55.700;26.994;2022-08-19T04:18:18;23.5;67.7
72919;SHT30;61063;55.700;26.994;2022-08-19T04:23:25;23.5;68
72919;SHT30;61063;55.700;26.994;2022-08-19T04:28:37;23.3;69.8
72919;SHT30;61063;55.700;26.994;2022-08-19T04:33:35;23.2;69.1
72919;SHT30;61063;55.700;26.994;2022-08-19T04:38:11;23.4;69.5
72919;SHT30;61063;55.700;26.994;2022-08-19T04:43:37;23.4;70
72919;SHT30;61063;55.700;26.994;2022-08-19T04:48:37;23.4;69.4
72919;SHT30;61063;55.700;26.994;2022-08-19T04:53:37;23.9;68.3
72919;SHT30;61063;55.700;26.994;2022-08-19T04:58:24;24;68.6
72919;SHT30;61063;55.700;26.994;2022-08-19T05:03:35;23.8;69
72919;SHT30;61063;55.700;26.994;2022-08-19T05:08:19;23.5;70.7
72919;SHT30;61063;55.700;26.994;2022-08-19T05:13:21;23.4;71.4
72919;SHT30;61063;55.700;26.994;2022-08-19T05:18:21;23.4;70.8
72919;SHT30;61063;55.700;26.994;2022-08-19T05:23:11;23.7;70.1
72919;SHT30;61063;55.700;26.994;2022-08-19T05:28:07;24;69.2
72919;SHT30;61063;55.700;26.994;2022-08-19T05:33:11;24;69.2
72919;SHT30;61063;55.700;26.994;2022-08-19T05:38:19;24.2;68.9
72919;SHT30;61063;55.700;26.994;2022-08-19T05:43:37;24.5;67.7
72919;SHT30;61063;55.700;26.994;2022-08-19T05:48:27;24.8;66.4
72919;SHT30;61063;55.700;26.994;2022-08-19T05:53:21;25.1;65.8
72919;SHT30;61063;55.700;26.994;2022-08-19T05:58:21;25;66.1
72919;SHT30;61063;55.700;26.994;2022-08-19T06:03:23;24.9;66
72919;SHT30;61063;55.700;26.994;2022-08-19T06:08:33;25.1;66.1
72919;SHT30;61063;55.700;26.994;2022-08-19T06:13:19;25.2;65.6
72919;SHT30;61063;55.700;26.994;2022-08-19T06:18:35;25.6;64.6
72919;SHT30;61063;55.700;26.994;2022-08-19T06:23:35;25.8;63.8
72919;SHT30;61063;55.700;26.994;2022-08-19T06:28:23;25.3;65.8
72919;SHT30;61063;55.700;26.994;2022-08-19T06:33:33;25.3;65.9
72919;SHT30;61063;55.700;26.994;2022-08-19T06:38:25;25.8;64.8
72919;SHT30;61063;55.700;26.994;2022-08-19T06:43:27;25.9;65
72919;SHT30;61063;55.700;26.994;2022-08-19T06:48:11;26;64.6
72919;SHT30;61063;55.700;26.994;2022-08-19T06:53:23;25.9;65.2
72919;SHT30;61063;55.700;26.994;2022-08-19T06:58:35;25.2;66.8
72919;SHT30;61063;55.700;26.994;2022-08-19T07:03:09;24.9;68.9
72919;SHT30;61063;55.700;26.994;2022-08-19T07:08:11;25;69.1
72919;SHT30;61063;55.700;26.994;2022-08-19T07:13:11;25.1;68.8
72919;SHT30;61063;55.700;26.994;2022-08-19T07:18:33;25.6;67.2
72919;SHT30;61063;55.700;26.994;2022-08-19T07:23:35;26.2;65.2
72919;SHT30;61063;55.700;26.994;2022-08-19T07:28:21;26.6;63.8
72919;SHT30;61063;55.700;26.994;2022-08-19T07:33:31;26.8;63.5
72919;SHT30;61063;55.700;26.994;2022-08-19T07:38:25;26.9;63.7
72919;SHT30;61063;55.700;26.994;2022-08-19T07:43:35;27;63.6
72919;SHT30;61063;55.700;26.994;2022-08-19T07:48:11;27;64.8
72919;SHT30;61063;55.700;26.994;2022-08-19T07:53:07;27;64.9
72919;SHT30;61063;55.700;26.994;2022-08-19T07:58:35;26.8;65.1
72919;SHT30;61063;55.700;26.994;2022-08-19T08:03:05;26.5;65.6
72919;SHT30;61063;55.700;26.994;2022-08-19T08:08:25;26.5;65.2
72919;SHT30;61063;55.700;26.994;2022-08-19T08:13:35;26.5;64.3
72919;SHT30;61063;55.700;26.994;2022-08-19T08:18:25;26.9;64.2
72919;SHT30;61063;55.700;26.994;2022-08-19T08:23:11;27.4;62.5
72919;SHT30;61063;55.700;26.994;2022-08-19T08:28:21;27.9;60.7
72919;SHT30;61063;55.700;26.994;2022-08-19T08:33:33;27.9;59.1
72919;SHT30;61063;55.700;26.994;2022-08-19T08:38:35;27.9;59.1
72919;SHT30;61063;55.700;26.994;2022-08-19T08:43:22;28.1;58.6
72919;SHT30;61063;55.700;26.994;2022-08-19T08:48:40;28.4;57.8
72919;SHT30;61063;55.700;26.994;2022-08-19T08:53:13;28.8;57.8
72919;SHT30;61063;55.700;26.994;2022-08-19T08:58:26;29;56.3
72919;SHT30;61063;55.700;26.994;2022-08-19T09:03:19;28.9;56.5
72919;SHT30;61063;55.700;26.994;2022-08-19T09:08:27;29.1;56.4
72919;SHT30;61063;55.700;26.994;2022-08-19T09:13:32;29.3;56.5
72919;SHT30;61063;55.700;26.994;2022-08-19T09:18:38;29.5;56
72919;SHT30;61063;55.700;26.994;2022-08-19T09:23:33;29.6;55.3
72919;SHT30;61063;55.700;26.994;2022-08-19T09:28:33;29.5;55
72919;SHT30;61063;55.700;26.994;2022-08-19T09:33:33;29.6;55
72919;SHT30;61063;55.700;26.994;2022-08-19T09:38:11;29.7;53.8
72919;SHT30;61063;55.700;26.994;2022-08-19T09:43:17;29.6;53.1
72919;SHT30;61063;55.700;26.994;2022-08-19T09:48:33;29.5;53.1
72919;SHT30;61063;55.700;26.994;2022-08-19T09:53:35;29.6;52.4
72919;SHT30;61063;55.700;26.994;2022-08-19T09:58:21;29.6;51.2
72919;SHT30;61063;55.700;26.994;2022-08-19T10:03:35;29.7;51.8
72919;SHT30;61063;55.700;26.994;2022-08-19T10:08:29;30;52
72919;SHT30;61063;55.700;26.994;2022-08-19T10:13:11;30.2;51.4
72919;SHT30;61063;55.700;26.994;2022-08-19T10:18:35;30.3;50.2
72919;SHT30;61063;55.700;26.994;2022-08-19T10:23:20;30.4;49.6
72919;SHT30;61063;55.700;26.994;2022-08-19T10:28:11;30.5;49.1
72919;SHT30;61063;55.700;26.994;2022-08-19T10:33:15;30.6;49.1
72919;SHT30;61063;55.700;26.994;2022-08-19T10:38:19;30.7;49.5
72919;SHT30;61063;55.700;26.994;2022-08-19T10:43:35;30.9;49.3
72919;SHT30;61063;55.700;26.994;2022-08-19T10:48:27;30.6;50
72919;SHT30;61063;55.700;26.994;2022-08-19T10:53:21;30.7;50.3
72919;SHT30;61063;55.700;26.994;2022-08-19T10:58:21;30.8;48.9
72919;SHT30;61063;55.700;26.994;2022-08-19T11:03:27;30.8;48.6
72919;SHT30;61063;55.700;26.994;2022-08-19T11:08:37;30.5;46.4
72919;SHT30;61063;55.700;26.994;2022-08-19T11:13:17;30.4;47.4
72919;SHT30;61063;55.700;26.994;2022-08-19T11:17:59;30.7;47.8
72919;SHT30;61063;55.700;26.994;2022-08-19T11:23:11;30.9;47.6
72919;SHT30;61063;55.700;26.994;2022-08-19T11:28:25;31;46.9
72919;SHT30;61063;55.700;26.994;2022-08-19T11:33:17;31;47.3
72919;SHT30;61063;55.700;26.994;2022-08-19T11:38:23;31.1;46.3
72919;SHT30;61063;55.700;26.994;2022-08-19T11:43:27;31.1;46.5
72919;SHT30;61063;55.700;26.994;2022-08-19T11:48:27;31;46.4
72919;SHT30;61063;55.700;26.994;2022-08-19T11:53:21;31.1;47
72919;SHT30;61063;55.700;26.994;2022-08-19T11:58:33;31;45.8
72919;SHT30;61063;55.700;26.994;2022-08-19T12:03:19;30.5;45.1
72919;SHT30;61063;55.700;26.994;2022-08-19T12:08:17;30.4;45
72919;SHT30;61063;55.700;26.994;2022-08-19T12:13:37;30.4;44.8
72919;SHT30;61063;55.700;26.994;2022-08-19T12:18:37;30.6;46
72919;SHT30;61063;55.700;26.994;2022-08-19T12:23:37;30.8;46.1
72919;SHT30;61063;55.700;26.994;2022-08-19T12:28:37;30.9;46.5
72919;SHT30;61063;55.700;26.994;2022-08-19T12:33:35;30.9;46.3
72919;SHT30;61063;55.700;26.994;2022-08-19T12:38:29;30.9;47
72919;SHT30;61063;55.700;26.994;2022-08-19T12:43:19;31;46.8
72919;SHT30;61063;55.700;26.994;2022-08-19T12:48:14;31;46.7
72919;SHT30;61063;55.700;26.994;2022-08-19T12:53:11;31;46.6
72919;SHT30;61063;55.700;26.994;2022-08-19T12:58:23;31;47.1
72919;SHT30;61063;55.700;26.994;2022-08-19T13:03:35;31.1;47.8
72919;SHT30;61063;55.700;26.994;2022-08-19T13:08:17;31;48
72919;SHT30;61063;55.700;26.994;2022-08-19T13:13:17;31;48.4
72919;SHT30;61063;55.700;26.994;2022-08-19T13:18:37;30.9;48.6
72919;SHT30;61063;55.700;26.994;2022-08-19T13:23:35;30.9;48.7
72919;SHT30;61063;55.700;26.994;2022-08-19T13:28:27;30.8;50.1
72919;SHT30;61063;55.700;26.994;2022-08-19T13:33:33;30.8;49.4
72919;SHT30;61063;55.700;26.994;2022-08-19T13:38:37;30.7;49.8
72919;SHT30;61063;55.700;26.994;2022-08-19T13:43:37;30.6;51.2
72919;SHT30;61063;55.700;26.994;2022-08-19T13:48:37;30.3;50.6
72919;SHT30;61063;55.700;26.994;2022-08-19T13:53:11;29.9;51.5
72919;SHT30;61063;55.700;26.994;2022-08-19T13:58:37;29.9;52.9
72919;SHT30;61063;55.700;26.994;2022-08-19T14:03:11;30;52.2
72919;SHT30;61063;55.700;26.994;2022-08-19T14:08:17;29.9;52.7
72919;SHT30;61063;55.700;26.994;2022-08-19T14:13:29;29.9;52.4
72919;SHT30;61063;55.700;26.994;2022-08-19T14:18:35;29.8;52.2
72919;SHT30;61063;55.700;26.994;2022-08-19T14:23:27;29.9;52.4
72919;SHT30;61063;55.700;26.994;2022-08-19T14:28:23;30;53.1
72919;SHT30;61063;55.700;26.994;2022-08-19T14:33:31;30;53.7
72919;SHT30;61063;55.700;26.994;2022-08-19T14:38:35;30.1;54
72919;SHT30;61063;55.700;26.994;2022-08-19T14:43:11;30.5;53
72919;SHT30;61063;55.700;26.994;2022-08-19T14:48:35;30.5;52.4
72919;SHT30;61063;55.700;26.994;2022-08-19T14:53:27;30.6;52.8
72919;SHT30;61063;55.700;26.994;2022-08-19T14:58:35;30.6;52.4
72919;SHT30;61063;55.700;26.994;2022-08-19T15:03:11;30.5;52.8
72919;SHT30;61063;55.700;26.994;2022-08-19T15:08:26;30.5;52.7
72919;SHT30;61063;55.700;26.994;2022-08-19T15:13:33;30.3;52
72919;SHT30;61063;55.700;26.994;2022-08-19T15:18:19;29.8;52.2
72919;SHT30;61063;55.700;26.994;2022-08-19T15:23:19;29.4;53.2
72919;SHT30;61063;55.700;26.994;2022-08-19T15:28:35;29.3;53.9
72919;SHT30;61063;55.700;26.994;2022-08-19T15:33:15;29.6;53.1
72919;SHT30;61063;55.700;26.994;2022-08-19T15:38:19;29.9;53.1
72919;SHT30;61063;55.700;26.994;2022-08-19T15:43:11;30.2;52.4
72919;SHT30;61063;55.700;26.994;2022-08-19T15:48:33;30.4;52.5
72919;SHT30;61063;55.700;26.994;2022-08-19T15:53:35;30.5;52.2
72919;SHT30;61063;55.700;26.994;2022-08-19T15:58:35;30.3;52.3
72919;SHT30;61063;55.700;26.994;2022-08-19T16:03:31;30.1;52.4
72919;SHT30;61063;55.700;26.994;2022-08-19T16:08:33;30;52.5
72919;SHT30;61063;55.700;26.994;2022-08-19T16:13:35;30;53.5
72919;SHT30;61063;55.700;26.994;2022-08-19T16:18:13;30.1;53.3
72919;SHT30;61063;55.700;26.994;2022-08-19T16:23:11;30.1;53.5
72919;SHT30;61063;55.700;26.994;2022-08-19T16:28:35;30;53.8
72919;SHT30;61063;55.700;26.994;2022-08-19T16:33:23;29.9;53.8
72919;SHT30;61063;55.700;26.994;2022-08-19T16:38:19;29.8;54.4
72919;SHT30;61063;55.700;26.994;2022-08-19T16:43:28;29.6;54.7
72919;SHT30;61063;55.700;26.994;2022-08-19T16:48:26;29.1;55.1
72919;SHT30;61063;55.700;26.994;2022-08-19T16:53:20;28.9;55.8
72919;SHT30;61063;55.700;26.994;2022-08-19T16:58:26;28.7;56.6
72919;SHT30;61063;55.700;26.994;2022-08-19T17:03:33;28.4;56.5
72919;SHT30;61063;55.700;26.994;2022-08-19T17:07:59;28.3;57.2
72919;SHT30;61063;55.700;26.994;2022-08-19T17:13:13;28.1;57.7
72919;SHT30;61063;55.700;26.994;2022-08-19T17:18:35;28;57.9
72919;SHT30;61063;55.700;26.994;2022-08-19T17:23:33;27.9;57.9
72919;SHT30;61063;55.700;26.994;2022-08-19T17:28:35;27.9;58.1
72919;SHT30;61063;55.700;26.994;2022-08-19T17:33:17;27.7;58.2
72919;SHT30;61063;55.700;26.994;2022-08-19T17:38:31;27.5;58.8
72919;SHT30;61063;55.700;26.994;2022-08-19T17:43:27;27.4;59.1
72919;SHT30;61063;55.700;26.994;2022-08-19T17:48:11;27.2;59.4
72919;SHT30;61063;55.700;26.994;2022-08-19T17:53:17;27.1;59.8
72919;SHT30;61063;55.700;26.994;2022-08-19T17:58:11;26.9;60.3
72919;SHT30;61063;55.700;26.994;2022-08-19T18:03:21;26.8;60.6
72919;SHT30;61063;55.700;26.994;2022-08-19T18:08:19;26.7;60.7
72919;SHT30;61063;55.700;26.994;2022-08-19T18:13:11;26.6;60.7
72919;SHT30;61063;55.700;26.994;2022-08-19T18:18:36;26.3;61.3
72919;SHT30;61063;55.700;26.994;2022-08-19T18:23:25;26.3;61.4
72919;SHT30;61063;55.700;26.994;2022-08-19T18:27:59;26;62.2
72919;SHT30;61063;55.700;26.994;2022-08-19T18:33:19;25.8;62.8
72919;SHT30;61063;55.700;26.994;2022-08-19T18:38:27;26;62.8
72919;SHT30;61063;55.700;26.994;2022-08-19T18:43:33;26.1;62.5
72919;SHT30;61063;55.700;26.994;2022-08-19T18:48:19;26.2;62.5
72919;SHT30;61063;55.700;26.994;2022-08-19T18:53:38;26;62.5
72919;SHT30;61063;55.700;26.994;2022-08-19T18:58:22;25.4;64
72919;SHT30;61063;55.700;26.994;2022-08-19T19:03:36;25.1;64.6
72919;SHT30;61063;55.700;26.994;2022-08-19T19:08:17;24.8;65.1
72919;SHT30;61063;55.700;26.994;2022-08-19T19:13:25;24.7;65.2
72919;SHT30;61063;55.700;26.994;2022-08-19T19:18:27;24.5;66.1
72919;SHT30;61063;55.700;26.994;2022-08-19T19:23:27;24.5;66
72919;SHT30;61063;55.700;26.994;2022-08-19T19:28:23;24.2;66.7
72919;SHT30;61063;55.700;26.994;2022-08-19T19:33:31;24.5;66.6
72919;SHT30;61063;55.700;26.994;2022-08-19T19:38:09;24.9;65.6
72919;SHT30;61063;55.700;26.994;2022-08-19T19:43:35;25.2;64.9
72919;SHT30;61063;55.700;26.994;2022-08-19T19:48:19;24.9;64.8
72919;SHT30;61063;55.700;26.994;2022-08-19T19:53:33;24.5;65.6
72919;SHT30;61063;55.700;26.994;2022-08-19T19:58:35;24.1;65.8
72919;SHT30;61063;55.700;26.994;2022-08-19T20:03:21;23.8;67
72919;SHT30;61063;55.700;26.994;2022-08-19T20:08:31;23.9;67.1
72919;SHT30;61063;55.700;26.994;2022-08-19T20:13:23;24.3;66.4
72919;SHT30;61063;55.700;26.994;2022-08-19T20:18:19;24.5;65.8
72919;SHT30;61063;55.700;26.994;2022-08-19T20:23:19;24.6;65.5
72919;SHT30;61063;55.700;26.994;2022-08-19T20:28:11;24.4;65.7
72919;SHT30;61063;55.700;26.994;2022-08-19T20:33:09;24.5;65.7
72919;SHT30;61063;55.700;26.994;2022-08-19T20:38:35;24.6;65.2
72919;SHT30;61063;55.700;26.994;2022-08-19T20:43:17;24.5;65.3
72919;SHT30;61063;55.700;26.994;2022-08-19T20:48:35;24.1;66
72919;SHT30;61063;55.700;26.994;2022-08-19T20:53:25;24.2;65.9
72919;SHT30;61063;55.700;26.994;2022-08-19T20:58:20;24.1;66.3
72919;SHT30;61063;55.700;26.994;2022-08-19T21:03:20;24;66.1
72919;SHT30;61063;55.700;26.994;2022-08-19T21:08:27;24;66.6
72919;SHT30;61063;55.700;26.994;2022-08-19T21:13:33;24.3;65.6
72919;SHT30;61063;55.700;26.994;2022-08-19T21:18:35;24.4;65.2
72919;SHT30;61063;55.700;26.994;2022-08-19T21:23:13;24.5;64.8
72919;SHT30;61063;55.700;26.994;2022-08-19T21:28:05;24.2;65.6
72919;SHT30;61063;55.700;26.994;2022-08-19T21:33:23;24.2;65.5
72919;SHT30;61063;55.700;26.994;2022-08-19T21:38:21;24.2;65.5
72919;SHT30;61063;55.700;26.994;2022-08-19T21:43:18;24.3;65.4
72919;SHT30;61063;55.700;26.994;2022-08-19T21:48:25;23.6;66.5
72919;SHT30;61063;55.700;26.994;2022-08-19T21:53:25;23;68
72919;SHT30;61063;55.700;26.994;2022-08-19T21:58:17;22.9;68.3
72919;SHT30;61063;55.700;26.994;2022-08-19T22:03:21;22.9;68.3
72919;SHT30;61063;55.700;26.994;2022-08-19T22:08:33;22.5;69.2
72919;SHT30;61063;55.700;26.994;2022-08-19T22:13:09;22.4;69.4
72919;SHT30;61063;55.700;26.994;2022-08-19T22:18:11;22.7;69.1
72919;SHT30;61063;55.700;26.994;2022-08-19T22:23:33;22.5;69.2
72919;SHT30;61063;55.700;26.994;2022-08-19T22:28:25;22.2;69.9
72919;SHT30;61063;55.700;26.994;2022-08-19T22:33:17;22.1;70.4
72919;SHT30;61063;55.700;26.994;2022-08-19T22:38:21;22.1;70.2
72919;SHT30;61063;55.700;26.994;2022-08-19T22:43:26;22;70.1
72919;SHT30;61063;55.700;26.994;2022-08-19T22:48:29;21.8;70.9
72919;SHT30;61063;55.700;26.994;2022-08-19T22:53:15;22.1;70.6
72919;SHT30;61063;55.700;26.994;2022-08-19T22:58:31;21.6;71.5
72919;SHT30;61063;55.700;26.994;2022-08-19T23:03:09;21.2;72.1
72919;SHT30;61063;55.700;26.994;2022-08-19T23:08:17;21;72.6
72919;SHT30;61063;55.700;26.994;2022-08-19T23:13:17;21.1;72.7
72919;SHT30;61063;55.700;26.994;2022-08-19T23:18:17;21.3;72.5
72919;SHT30;61063;55.700;26.994;2022-08-19T23:23:31;21.1;72.7
72919;SHT30;61063;55.700;26.994;2022-08-19T23:28:31;21.1;72.8
72919;SHT30;61063;55.700;26.994;2022-08-19T23:33:41;20.9;73.3
72919;SHT30;61063;55.700;26.994;2022-08-19T23:38:29;20.9;73.3
72919;SHT30;61063;55.700;26.994;2022-08-19T23:43:29;21.1;73.4
72919;SHT30;61063;55.700;26.994;2022-08-19T23:48:31;21.5;72.3
72919;SHT30;61063;55.700;26.994;2022-08-19T23:53:11;21.6;71.7
72919;SHT30;61063;55.700;26.994;2022-08-19T23:58:32;21.1;72.6
